Time;durP1;ratioP1;P1;durP2;ratioP2;P2;SDS_P1;SDS_P2;PMS_P1;PMS_P2;Temp;Humidity;BMP_temperature;BMP_pressure;BME280_temperature;BME280_humidity;BME280_pressure;Samples;Min_cycle;Max_cycle;Signal;HPM_P1;HPM_P2
2023/12/31 00:00:21;;;;;;;4.20;1.40;;;;;;;8.18;100.00;100400.44;5110511;28;20365;-36
2023/12/31 00:02:47;;;;;;;2.30;0.80;;;;;;;8.24;100.00;100404.91;5110762;28;20051;-36
2023/12/31 00:05:12;;;;;;;1.23;0.60;;;;;;;8.24;100.00;100391.44;5110341;28;20107;-36
2023/12/31 00:07:37;;;;;;;1.93;0.70;;;;;;;8.28;100.00;100392.63;5101854;28;20052;-35
2023/12/31 00:10:03;;;;;;;1.50;0.60;;;;;;;8.27;100.00;100377.53;5097002;28;20070;-36
2023/12/31 00:12:28;;;;;;;2.05;0.70;;;;;;;8.21;100.00;100364.97;5096999;28;20054;-36
2023/12/31 00:14:53;;;;;;;2.47;0.60;;;;;;;8.25;100.00;100364.28;5096866;28;20090;-36
2023/12/31 00:17:19;;;;;;;3.73;1.03;;;;;;;8.31;100.00;100376.03;5096028;28;20024;-35
2023/12/31 00:19:44;;;;;;;1.87;0.97;;;;;;;8.29;100.00;100353.88;5096530;28;20032;-36
2023/12/31 00:22:10;;;;;;;1.93;0.80;;;;;;;8.33;100.00;100352.38;5095960;28;20077;-36
2023/12/31 00:24:35;;;;;;;4.30;1.50;;;;;;;8.32;100.00;100353.41;5096201;28;20040;-35
2023/12/31 00:27:00;;;;;;;2.57;1.23;;;;;;;8.33;100.00;100346.97;5096490;28;20603;-35
2023/12/31 00:29:28;;;;;;;2.00;0.80;;;;;;;8.35;100.00;100339.50;5096371;28;20028;-35
2023/12/31 00:31:54;;;;;;;2.45;0.70;;;;;;;8.30;100.00;100317.81;5096104;28;20054;-36
2023/12/31 00:34:19;;;;;;;2.27;0.90;;;;;;;8.39;100.00;100329.91;5095792;28;20055;-37
2023/12/31 00:36:44;;;;;;;2.70;0.90;;;;;;;8.42;100.00;100331.34;5095977;28;20070;-36
2023/12/31 00:39:10;;;;;;;1.57;0.60;;;;;;;8.42;100.00;100329.47;5095889;28;20028;-37
2023/12/31 00:41:35;;;;;;;2.00;0.70;;;;;;;8.40;100.00;100310.03;5096229;28;20028;-36
2023/12/31 00:44:00;;;;;;;1.20;0.60;;;;;;;8.42;100.00;100307.09;5096407;28;20107;-36
2023/12/31 00:46:26;;;;;;;2.87;0.97;;;;;;;8.42;100.00;100285.56;5096351;28;20127;-36
2023/12/31 00:48:51;;;;;;;1.70;0.70;;;;;;;8.43;100.00;100287.19;5095985;28;20050;-36
2023/12/31 00:51:16;;;;;;;1.33;0.73;;;;;;;8.44;100.00;100291.50;5095381;28;20271;-36
2023/12/31 00:53:42;;;;;;;3.40;0.90;;;;;;;8.37;100.00;100278.16;5095677;28;20020;-36
2023/12/31 00:56:08;;;;;;;2.03;0.60;;;;;;;8.42;100.00;100286.38;5095733;28;20075;-36
2023/12/31 00:58:33;;;;;;;1.92;0.80;;;;;;;8.44;100.00;100292.38;5095549;28;20060;-36
2023/12/31 01:00:59;;;;;;;1.87;0.70;;;;;;;8.45;100.00;100288.63;5095561;28;20024;-36
2023/12/31 01:03:24;;;;;;;2.43;0.90;;;;;;;8.48;100.00;100282.75;5095205;28;20024;-36
2023/12/31 01:05:49;;;;;;;2.58;0.70;;;;;;;8.42;100.00;100269.38;5095394;28;20035;-36
2023/12/31 01:08:15;;;;;;;2.73;0.80;;;;;;;8.40;100.00;100271.50;5095366;28;20028;-36
2023/12/31 01:10:40;;;;;;;1.30;0.70;;;;;;;8.48;100.00;100280.03;5095631;28;20097;-36
2023/12/31 01:13:06;;;;;;;1.83;0.70;;;;;;;8.43;100.00;100262.94;5095281;28;20024;-36
2023/12/31 01:15:31;;;;;;;1.55;0.70;;;;;;;8.48;100.00;100269.28;5095474;28;20020;-36
2023/12/31 01:17:56;;;;;;;1.47;0.70;;;;;;;8.47;100.00;100266.81;5095366;28;20059;-36
2023/12/31 01:20:22;;;;;;;1.13;0.60;;;;;;;8.45;100.00;100252.75;5094983;28;20065;-36
2023/12/31 01:22:47;;;;;;;1.90;0.83;;;;;;;8.29;100.00;100221.06;5095754;28;20282;-36
2023/12/31 01:25:12;;;;;;;2.93;0.83;;;;;;;8.44;100.00;100241.16;5095596;28;20036;-36
2023/12/31 01:27:38;;;;;;;1.10;0.67;;;;;;;8.45;100.00;100245.50;5094780;28;20020;-36
2023/12/31 01:30:04;;;;;;;1.63;0.80;;;;;;;8.35;100.00;100229.06;5095530;28;20032;-37
2023/12/31 01:32:29;;;;;;;2.03;0.80;;;;;;;8.37;100.00;100216.19;5095214;28;20027;-36
2023/12/31 01:35:03;;;;;;;3.10;0.70;;;;;;;8.46;100.00;100230.16;5094775;28;20032;-36
2023/12/31 01:37:28;;;;;;;1.73;0.60;;;;;;;8.44;100.00;100233.09;5094765;28;20258;-36
2023/12/31 01:39:53;;;;;;;0.93;0.68;;;;;;;8.42;100.00;100221.69;5094685;28;20028;-36
2023/12/31 01:42:19;;;;;;;1.95;0.70;;;;;;;8.43;100.00;100228.72;5095228;28;20112;-36
2023/12/31 01:44:44;;;;;;;1.77;0.60;;;;;;;8.42;100.00;100224.41;5094672;28;20028;-36
2023/12/31 01:47:12;;;;;;;2.07;0.67;;;;;;;8.41;100.00;100208.47;5095194;28;20375;-36
2023/12/31 01:49:37;;;;;;;1.50;0.55;;;;;;;8.43;100.00;100196.38;5094593;28;20055;-36
2023/12/31 01:52:03;;;;;;;1.70;0.70;;;;;;;8.46;100.00;100203.22;5094906;28;20063;-36
2023/12/31 01:54:28;;;;;;;2.03;0.77;;;;;;;8.44;100.00;100200.75;5094445;28;20028;-36
2023/12/31 01:56:55;;;;;;;1.70;0.70;;;;;;;8.37;100.00;100183.84;5094306;28;20069;-36
2023/12/31 01:59:21;;;;;;;1.23;0.60;;;;;;;8.42;100.00;100181.28;5094399;28;20047;-36
2023/12/31 02:01:48;;;;;;;1.75;0.73;;;;;;;8.43;100.00;100187.50;5094338;28;20063;-36
2023/12/31 02:04:14;;;;;;;1.50;0.80;;;;;;;8.44;100.00;100181.03;5093971;28;20031;-36
2023/12/31 02:06:40;;;;;;;2.72;0.77;;;;;;;8.42;100.00;100175.91;5094210;28;20067;-36
2023/12/31 02:09:06;;;;;;;1.10;0.70;;;;;;;8.42;100.00;100167.81;5095016;28;20035;-36
2023/12/31 02:11:32;;;;;;;3.65;0.90;;;;;;;8.45;100.00;100172.75;5094742;28;20024;-36
2023/12/31 02:13:58;;;;;;;4.60;0.65;;;;;;;8.31;100.00;100151.63;5094633;28;20387;-36
2023/12/31 02:16:24;;;;;;;2.03;0.88;;;;;;;8.40;100.00;100161.84;5094027;28;20034;-36
2023/12/31 02:18:49;;;;;;;;;;;;;;;8.40;100.00;100153.78;5094700;28;20069;-36
2023/12/31 02:21:15;;;;;;;1.15;0.70;;;;;;;8.37;100.00;100143.44;5094325;28;19947;-36
2023/12/31 02:23:41;;;;;;;1.92;0.80;;;;;;;8.35;100.00;100142.84;5093963;28;20059;-36
2023/12/31 02:26:08;;;;;;;1.50;0.90;;;;;;;8.18;100.00;100114.94;5093736;28;20107;-36
2023/12/31 02:28:34;;;;;;;1.40;0.90;;;;;;;8.34;100.00;100135.78;5093557;28;20547;-36
2023/12/31 02:30:59;;;;;;;1.95;0.90;;;;;;;8.34;100.00;100137.66;5093674;28;20161;-36
2023/12/31 02:33:25;;;;;;;1.43;0.80;;;;;;;8.33;100.00;100127.94;5094634;28;20372;-36
2023/12/31 02:35:50;;;;;;;1.20;0.60;;;;;;;8.30;100.00;100121.16;5094272;28;20034;-36
2023/12/31 02:38:16;;;;;;;2.05;0.88;;;;;;;8.23;100.00;100099.72;5094536;28;20356;-36
2023/12/31 02:40:41;;;;;;;1.93;0.70;;;;;;;8.12;100.00;100072.78;5094577;28;20469;-36
2023/12/31 02:43:06;;;;;;;2.27;0.80;;;;;;;8.29;100.00;100087.19;5093732;28;20035;-36
2023/12/31 02:45:31;;;;;;;3.07;0.90;;;;;;;8.29;100.00;100079.09;5093760;28;20357;-36
2023/12/31 02:47:57;;;;;;;1.20;0.70;;;;;;;8.25;100.00;100076.09;5093975;28;20051;-37
2023/12/31 02:50:22;;;;;;;1.67;0.90;;;;;;;8.31;100.00;100082.41;5094191;28;20046;-36
2023/12/31 02:52:48;;;;;;;1.13;0.70;;;;;;;8.30;100.00;100072.69;5093989;28;20066;-36
2023/12/31 02:55:14;;;;;;;1.75;0.70;;;;;;;8.29;100.00;100064.81;5093230;28;20048;-37
2023/12/31 02:57:39;;;;;;;1.40;0.73;;;;;;;8.27;100.00;100056.97;5093834;28;20029;-36
2023/12/31 03:00:05;;;;;;;3.15;0.90;;;;;;;8.22;100.00;100063.06;5094070;28;20028;-37
2023/12/31 03:02:31;;;;;;;1.70;0.70;;;;;;;8.22;100.00;100054.19;5094099;28;20342;-37
2023/12/31 03:04:56;;;;;;;1.77;0.83;;;;;;;8.20;100.00;100049.03;5093241;28;20030;-36
2023/12/31 03:07:21;;;;;;;0.93;0.57;;;;;;;8.17;100.00;100040.59;5093552;28;20037;-37
2023/12/31 03:09:47;;;;;;;1.67;0.85;;;;;;;8.18;100.00;100039.53;5093487;28;20034;-37
2023/12/31 03:12:12;;;;;;;1.30;0.63;;;;;;;8.08;100.00;100028.53;5093504;28;20035;-36
2023/12/31 03:14:38;;;;;;;3.72;0.93;;;;;;;8.06;100.00;100015.31;5093165;28;20096;-37
2023/12/31 03:17:03;;;;;;;2.63;0.97;;;;;;;8.17;100.00;100030.63;5093935;28;20024;-36
2023/12/31 03:19:35;;;;;;;1.42;0.90;;;;;;;8.17;100.00;100022.56;5093359;28;20793;-37
2023/12/31 03:22:01;;;;;;;2.15;0.70;;;;;;;8.07;100.00;99998.09;5093476;28;20109;-37
2023/12/31 03:24:27;;;;;;;1.80;0.82;;;;;;;8.13;100.00;100012.50;5093008;28;20483;-37
2023/12/31 03:26:52;;;;;;;2.40;0.70;;;;;;;8.10;100.00;99997.63;5093501;28;20550;-37
2023/12/31 03:29:18;;;;;;;2.55;0.70;;;;;;;8.11;100.00;99987.69;5093500;28;20037;-36
2023/12/31 03:31:43;;;;;;;1.27;0.80;;;;;;;7.98;100.00;99959.94;5094089;28;20032;-37
2023/12/31 03:34:08;;;;;;;1.45;0.70;;;;;;;8.08;100.00;99975.50;5093144;28;20034;-37
2023/12/31 03:36:34;;;;;;;1.07;0.70;;;;;;;8.10;100.00;99977.94;5093467;28;20030;-36
2023/12/31 03:39:00;;;;;;;;;;;;;;;8.11;100.00;99966.13;5094129;28;20047;-36
2023/12/31 03:41:25;;;;;;;1.80;0.87;;;;;;;8.06;100.00;99945.31;5092985;28;20364;-37
2023/12/31 03:43:50;;;;;;;2.50;0.63;;;;;;;8.09;100.00;99952.06;5096871;28;20034;-36
2023/12/31 03:46:16;;;;;;;4.67;1.00;;;;;;;8.09;100.00;99947.50;5079643;28;20028;-37
2023/12/31 03:48:42;;;;;;;1.20;0.90;;;;;;;8.08;100.00;99926.22;5096853;28;20119;-36
2023/12/31 03:51:09;;;;;;;1.63;0.82;;;;;;;8.09;100.00;99922.47;5096882;28;20056;-37
2023/12/31 03:53:34;;;;;;;1.52;0.73;;;;;;;8.12;100.00;99922.00;5096805;28;20078;-37
2023/12/31 03:55:59;;;;;;;1.50;1.03;;;;;;;8.11;100.00;99912.28;5097128;28;20052;-36
2023/12/31 03:58:25;;;;;;;1.07;0.63;;;;;;;8.12;100.00;99913.91;5096693;28;20032;-36
2023/12/31 04:00:50;;;;;;;1.20;0.70;;;;;;;7.98;100.00;99892.63;5096686;28;20020;-36
2023/12/31 04:03:15;;;;;;;2.30;1.03;;;;;;;8.08;100.00;99896.59;5096973;28;20035;-37
2023/12/31 04:05:41;;;;;;;1.90;0.90;;;;;;;8.07;100.00;99901.16;5096373;28;20032;-37
2023/12/31 04:08:06;;;;;;;1.58;0.95;;;;;;;8.08;100.00;99888.50;5096507;28;20024;-36
2023/12/31 04:10:32;;;;;;;4.93;1.40;;;;;;;8.07;100.00;99884.19;5096891;28;20028;-37
2023/12/31 04:12:57;;;;;;;1.63;0.90;;;;;;;7.96;100.00;99867.81;5096440;28;20077;-36
2023/12/31 04:15:22;;;;;;;2.33;0.80;;;;;;;8.05;100.00;99878.22;5096135;28;20032;-36
2023/12/31 04:17:48;;;;;;;1.45;0.70;;;;;;;7.97;100.00;99863.25;5096379;28;20116;-37
2023/12/31 04:20:13;;;;;;;2.97;1.20;;;;;;;8.05;100.00;99864.75;5096656;28;20028;-37
2023/12/31 04:22:39;;;;;;;2.40;0.90;;;;;;;7.97;100.00;99853.31;5096907;28;20035;-36
2023/12/31 04:25:04;;;;;;;2.70;0.87;;;;;;;8.03;100.00;99854.22;5096279;28;20031;-36
2023/12/31 04:27:35;;;;;;;1.98;0.70;;;;;;;8.02;100.00;99852.59;5095928;28;20023;-36
2023/12/31 04:30:01;;;;;;;4.20;1.00;;;;;;;8.02;100.00;99855.28;5096660;28;20107;-36
2023/12/31 04:32:26;;;;;;;1.13;0.90;;;;;;;7.98;100.00;99838.78;5096644;28;20120;-37
2023/12/31 04:34:51;;;;;;;2.10;0.90;;;;;;;8.00;100.00;99830.47;5095989;28;20073;-37
2023/12/31 04:37:16;;;;;;;2.33;0.90;;;;;;;7.99;100.00;99828.81;5096349;28;20024;-37
2023/12/31 04:39:42;;;;;;;2.23;0.87;;;;;;;7.99;100.00;99834.22;5095916;28;20037;-36
2023/12/31 04:42:07;;;;;;;1.93;0.90;;;;;;;7.99;100.00;99834.22;5078411;28;20034;-36
2023/12/31 04:44:32;;;;;;;1.40;0.93;;;;;;;7.97;100.00;99826.38;5096207;28;20032;-36
2023/12/31 04:46:58;;;;;;;2.07;1.13;;;;;;;7.97;100.00;99821.00;5095887;28;20081;-37
2023/12/31 04:49:23;;;;;;;1.40;1.00;;;;;;;7.87;100.00;99798.44;5095713;28;20066;-37
2023/12/31 04:51:49;;;;;;;1.83;1.10;;;;;;;7.94;100.00;99809.88;5096365;28;20054;-36
2023/12/31 04:54:14;;;;;;;1.40;0.90;;;;;;;7.89;100.00;99794.44;5095628;28;20040;-37
2023/12/31 04:56:39;;;;;;;3.35;0.93;;;;;;;7.89;100.00;99802.53;5095233;28;20327;-36
2023/12/31 04:59:05;;;;;;;1.30;1.00;;;;;;;7.96;100.00;99802.41;5095867;28;20024;-36
2023/12/31 05:01:34;;;;;;;1.27;0.82;;;;;;;7.94;100.00;99789.16;5095801;28;20258;-37
2023/12/31 05:04:01;;;;;;;1.30;0.90;;;;;;;7.93;100.00;99782.16;5096042;28;20055;-36
2023/12/31 05:06:26;;;;;;;3.75;1.05;;;;;;;7.93;100.00;99775.94;5095496;28;20032;-37
2023/12/31 05:08:52;;;;;;;1.95;1.17;;;;;;;7.97;100.00;99767.16;5095431;28;20040;-37
2023/12/31 05:11:18;;;;;;;2.15;1.00;;;;;;;7.96;100.00;99776.28;5096191;28;20032;-36
2023/12/31 05:13:44;;;;;;;1.80;1.23;;;;;;;7.98;100.00;99770.66;5095578;28;20032;-36
2023/12/31 05:16:13;;;;;;;2.10;1.30;;;;;;;7.98;100.00;99760.72;5095200;28;20028;-36
2023/12/31 05:18:40;;;;;;;2.00;1.20;;;;;;;7.97;100.00;99750.19;5095473;28;20024;-36
2023/12/31 05:21:05;;;;;;;1.50;1.17;;;;;;;8.02;100.00;99752.16;5095127;28;20036;-36
2023/12/31 05:23:31;;;;;;;2.93;1.03;;;;;;;8.07;100.00;99738.78;5095121;28;20032;-36
2023/12/31 05:25:57;;;;;;;2.97;1.40;;;;;;;8.07;100.00;99742.28;5095608;28;20035;-36
2023/12/31 05:28:22;;;;;;;1.67;1.10;;;;;;;7.98;100.00;99712.25;5094995;28;20032;-36
2023/12/31 05:30:47;;;;;;;2.07;1.10;;;;;;;8.11;100.00;99721.09;5095205;28;20468;-36
2023/12/31 05:33:13;;;;;;;1.43;1.03;;;;;;;8.11;100.00;99713.84;5094696;28;20464;-36
2023/12/31 05:35:39;;;;;;;1.90;1.17;;;;;;;8.04;100.00;99715.84;5094810;28;20357;-36
2023/12/31 05:38:04;;;;;;;1.33;1.02;;;;;;;8.12;100.00;99714.66;5094807;28;20024;-36
2023/12/31 05:40:29;;;;;;;1.53;1.20;;;;;;;8.13;100.00;99716.28;5094805;28;20024;-36
2023/12/31 05:42:56;;;;;;;2.33;1.03;;;;;;;8.07;100.00;99693.03;5094750;28;20032;-36
2023/12/31 05:45:21;;;;;;;1.88;1.00;;;;;;;8.01;100.00;99678.66;5094631;28;20093;-36
2023/12/31 05:47:47;;;;;;;2.30;1.13;;;;;;;8.11;100.00;99694.19;5095459;28;20056;-36
2023/12/31 05:50:13;;;;;;;2.05;1.20;;;;;;;8.13;100.00;99702.81;5094846;28;20482;-36
2023/12/31 05:52:38;;;;;;;2.00;1.17;;;;;;;8.02;100.00;99680.28;5095340;28;20056;-36
2023/12/31 05:55:04;;;;;;;2.57;1.30;;;;;;;8.13;100.00;99686.66;5094330;28;20108;-36
2023/12/31 05:57:29;;;;;;;2.20;1.33;;;;;;;8.13;100.00;99678.56;5094116;28;20048;-36
2023/12/31 05:59:55;;;;;;;3.30;1.30;;;;;;;8.09;100.00;99664.78;5094931;28;20067;-36
2023/12/31 06:02:20;;;;;;;2.27;1.27;;;;;;;8.03;100.00;99654.19;5094741;28;20020;-36
2023/12/31 06:04:45;;;;;;;1.80;1.20;;;;;;;8.15;100.00;99679.13;5093798;28;20392;-36
2023/12/31 06:07:11;;;;;;;1.87;1.30;;;;;;;8.16;100.00;99694.25;5094687;28;20028;-36
2023/12/31 06:09:36;;;;;;;1.80;1.10;;;;;;;8.11;100.00;99656.47;5093985;28;20030;-36
2023/12/31 06:12:01;;;;;;;2.10;1.30;;;;;;;8.19;100.00;99672.22;5094527;28;20126;-36
2023/12/31 06:14:27;;;;;;;3.37;1.50;;;;;;;8.18;100.00;99665.19;5094489;28;20741;-36
2023/12/31 06:16:52;;;;;;;1.40;1.20;;;;;;;8.17;100.00;99661.69;5093776;28;20028;-35
2023/12/31 06:19:17;;;;;;;2.50;1.40;;;;;;;8.15;100.00;99660.28;5093732;28;20024;-37
2023/12/31 06:21:43;;;;;;;3.07;1.47;;;;;;;8.13;100.00;99640.88;5094359;28;20059;-36
2023/12/31 06:24:08;;;;;;;1.83;1.47;;;;;;;8.15;100.00;99646.81;5094590;28;20323;-36
2023/12/31 06:26:33;;;;;;;1.97;1.37;;;;;;;8.06;100.00;99618.69;5094016;28;20031;-36
2023/12/31 06:28:59;;;;;;;2.13;1.23;;;;;;;8.05;100.00;99627.81;5093652;28;20517;-36
2023/12/31 06:31:25;;;;;;;1.67;1.27;;;;;;;8.09;100.00;99637.03;5094163;28;20035;-37
2023/12/31 06:33:51;;;;;;;2.35;1.30;;;;;;;8.09;100.00;99623.56;5093821;28;20024;-37
2023/12/31 06:36:17;;;;;;;1.50;1.17;;;;;;;8.07;100.00;99631.91;5094584;28;20035;-37
2023/12/31 06:38:42;;;;;;;1.57;1.17;;;;;;;8.07;100.00;99614.94;5093504;28;20168;-37
2023/12/31 06:41:08;;;;;;;3.33;1.47;;;;;;;8.08;100.00;99613.88;5093856;28;20341;-37
2023/12/31 06:43:35;;;;;;;1.55;1.17;;;;;;;8.08;100.00;99619.25;5093729;28;20103;-37
2023/12/31 06:46:01;;;;;;;2.67;1.30;;;;;;;8.10;100.00;99609.03;5094003;28;20039;-37
2023/12/31 06:48:26;;;;;;;1.77;1.30;;;;;;;8.05;100.00;99584.75;5093636;28;20102;-37
2023/12/31 06:50:52;;;;;;;2.60;1.40;;;;;;;8.09;100.00;99594.78;5094055;28;20055;-37
2023/12/31 06:53:17;;;;;;;3.10;1.27;;;;;;;8.10;100.00;99595.59;5093965;28;20024;-37
2023/12/31 06:55:42;;;;;;;3.43;1.73;;;;;;;8.10;100.00;99580.28;5094129;28;20063;-37
2023/12/31 06:58:08;;;;;;;1.77;1.30;;;;;;;8.12;100.00;99569.25;5093662;28;20032;-37
2023/12/31 07:00:33;;;;;;;1.73;1.30;;;;;;;8.10;100.00;99571.34;5094213;28;20024;-37
2023/12/31 07:02:59;;;;;;;1.52;1.20;;;;;;;8.14;100.00;99588.66;5093863;28;20114;-37
2023/12/31 07:05:24;;;;;;;1.30;1.10;;;;;;;8.16;100.00;99575.78;5093198;28;20028;-37
2023/12/31 07:07:50;;;;;;;1.77;1.20;;;;;;;8.19;100.00;99559.91;5093779;28;20042;-37
2023/12/31 07:10:15;;;;;;;2.08;1.33;;;;;;;8.11;100.00;99540.69;5093188;28;20035;-37
2023/12/31 07:12:40;;;;;;;4.60;1.47;;;;;;;8.14;100.00;99551.78;5093722;28;20361;-37
2023/12/31 07:15:06;;;;;;;1.90;1.40;;;;;;;8.18;100.00;99542.13;5093041;28;20069;-34
2023/12/31 07:17:32;;;;;;;2.50;1.27;;;;;;;8.30;100.00;99566.31;5094805;28;20363;-36
2023/12/31 07:19:58;;;;;;;2.33;1.37;;;;;;;8.34;100.00;99548.56;5096855;28;20020;-36
2023/12/31 07:22:24;;;;;;;1.63;1.40;;;;;;;8.33;100.00;99533.47;5097937;28;20027;-36
2023/12/31 07:24:50;;;;;;;2.00;1.13;;;;;;;8.43;100.00;99541.72;5097787;28;20020;-35
2023/12/31 07:27:15;;;;;;;1.73;1.50;;;;;;;8.44;100.00;99529.91;5097021;28;20043;-36
2023/12/31 07:29:40;;;;;;;2.40;1.50;;;;;;;8.46;100.00;99535.03;5097742;28;20028;-36
2023/12/31 07:32:06;;;;;;;2.73;1.80;;;;;;;8.45;100.00;99531.53;5097450;28;20040;-36
2023/12/31 07:34:31;;;;;;;3.90;1.50;;;;;;;8.55;100.00;99527.34;5096985;28;20060;-36
2023/12/31 07:36:57;;;;;;;2.88;1.65;;;;;;;8.55;100.00;99519.25;5096474;28;20048;-36
2023/12/31 07:39:22;;;;;;;2.33;1.13;;;;;;;8.57;100.00;99511.72;5096756;28;20063;-36
2023/12/31 07:41:47;;;;;;;2.27;1.50;;;;;;;8.61;100.00;99510.16;5096428;28;20341;-36
2023/12/31 07:44:13;;;;;;;1.83;1.20;;;;;;;8.65;100.00;99501.34;5096704;28;20032;-36
2023/12/31 07:46:38;;;;;;;1.70;1.00;;;;;;;8.69;100.00;99510.53;5096720;28;20261;-36
2023/12/31 07:49:03;;;;;;;1.70;1.10;;;;;;;8.72;100.00;99515.41;5096593;28;20468;-36
2023/12/31 07:51:29;;;;;;;1.60;1.27;;;;;;;8.60;100.00;99478.91;5096486;28;20024;-36
2023/12/31 07:53:55;;;;;;;;;;;;;;;8.81;100.00;99491.53;5097571;28;20097;-36
2023/12/31 07:56:20;;;;;;;2.10;1.38;;;;;;;8.84;100.00;99491.03;5097707;28;20336;-36
2023/12/31 07:58:45;;;;;;;2.03;1.30;;;;;;;8.85;100.00;99487.28;5096469;28;20524;-36
2023/12/31 08:01:11;;;;;;;1.73;1.30;;;;;;;8.91;100.00;99491.66;5096970;28;20020;-36
2023/12/31 08:03:36;;;;;;;2.60;1.40;;;;;;;8.96;100.00;99502.50;5096388;28;20384;-36
2023/12/31 08:06:03;;;;;;;2.43;1.30;;;;;;;8.93;100.00;99476.06;5096647;28;20379;-36
2023/12/31 08:08:29;;;;;;;2.65;1.60;;;;;;;8.99;100.00;99485.81;5096475;28;20032;-36
2023/12/31 08:10:55;;;;;;;1.85;1.30;;;;;;;8.95;100.00;99476.59;5097288;28;20035;-36
2023/12/31 08:13:21;;;;;;;2.57;1.87;;;;;;;9.00;100.00;99490.13;5096103;28;20397;-36
2023/12/31 08:15:46;;;;;;;2.67;2.00;;;;;;;9.00;100.00;99487.44;5061004;28;20400;-36
2023/12/31 08:18:12;;;;;;;3.17;1.77;;;;;;;9.05;100.00;99483.16;5096435;28;20107;-36
2023/12/31 08:20:38;;;;;;;;;;;;;;;9.10;100.00;99481.34;5096722;28;20553;-36
2023/12/31 08:23:03;;;;;;;1.58;1.20;;;;;;;9.10;100.00;99465.16;5096302;28;19917;-36
2023/12/31 08:25:28;;;;;;;2.22;1.55;;;;;;;9.19;100.00;99479.81;5096274;28;20024;-35
2023/12/31 08:27:54;;;;;;;2.10;1.40;;;;;;;9.25;100.00;99480.69;5096568;28;20102;-36
2023/12/31 08:30:20;;;;;;;2.43;1.43;;;;;;;9.34;100.00;99481.84;5095911;28;20080;-36
2023/12/31 08:32:45;;;;;;;2.42;1.38;;;;;;;9.36;100.00;99482.38;5096392;28;20704;-36
2023/12/31 08:35:10;;;;;;;1.77;1.10;;;;;;;9.39;100.00;99476.50;5095616;28;20436;-35
2023/12/31 08:37:36;;;;;;;1.80;1.43;;;;;;;9.32;100.00;99472.34;5096831;28;20262;-36
2023/12/31 08:40:01;;;;;;;1.00;0.90;;;;;;;9.40;100.00;99475.41;5095899;28;20073;-36
2023/12/31 08:42:27;;;;;;;1.63;1.10;;;;;;;9.36;100.00;99481.56;5096233;28;20085;-36
2023/12/31 08:44:52;;;;;;;1.50;0.90;;;;;;;9.36;100.00;99479.69;5096198;28;20028;-36
2023/12/31 08:47:17;;;;;;;2.40;1.47;;;;;;;9.34;100.00;99476.44;5095896;28;20111;-37
2023/12/31 08:49:43;;;;;;;1.33;1.10;;;;;;;9.28;100.00;99469.38;5095471;28;20285;-37
2023/12/31 08:52:08;;;;;;;1.77;1.20;;;;;;;9.25;100.00;99476.09;5095874;28;20020;-36
2023/12/31 08:54:33;;;;;;;2.27;1.10;;;;;;;9.22;100.00;99481.16;5095419;28;20279;-37
2023/12/31 08:56:59;;;;;;;1.83;1.23;;;;;;;9.17;100.00;99473.84;5096781;28;20421;-37
2023/12/31 08:59:25;;;;;;;2.17;1.45;;;;;;;9.14;100.00;99473.56;5095655;28;20032;-36
2023/12/31 09:01:51;;;;;;;1.77;1.10;;;;;;;9.12;100.00;99470.28;5096120;28;20032;-37
2023/12/31 09:04:17;;;;;;;1.55;1.20;;;;;;;9.11;100.00;99468.66;5095501;28;20032;-37
2023/12/31 09:06:42;;;;;;;1.38;1.27;;;;;;;9.08;100.00;99475.41;5095257;28;20031;-36
2023/12/31 09:09:08;;;;;;;1.50;1.07;;;;;;;8.96;100.00;99464.75;5095921;28;20110;-36
2023/12/31 09:11:34;;;;;;;1.30;1.05;;;;;;;8.99;100.00;99496.59;5095451;28;20019;-36
2023/12/31 09:17:21;;;;;;;1.27;1.05;;;;;;;8.87;100.00;99484.31;5095851;28;20419;-36
2023/12/31 09:19:47;;;;;;;1.42;1.10;;;;;;;8.84;100.00;99501.00;5095494;28;20020;-37
2023/12/31 09:22:13;;;;;;;1.52;1.13;;;;;;;8.78;100.00;99489.34;5095769;28;20028;-36
2023/12/31 09:24:38;;;;;;;1.45;1.05;;;;;;;8.75;100.00;99492.56;5095138;28;20432;-36
2023/12/31 09:27:07;;;;;;;1.35;1.10;;;;;;;8.76;100.00;99507.66;5094853;28;20034;-36
2023/12/31 09:29:32;;;;;;;2.42;1.20;;;;;;;8.76;100.00;99502.25;5095029;28;20024;-37
2023/12/31 09:31:58;;;;;;;1.33;1.00;;;;;;;8.77;100.00;99507.38;5095271;28;20448;-37
2023/12/31 09:34:23;;;;;;;1.63;0.90;;;;;;;8.76;100.00;99508.47;5095474;28;20038;-36
2023/12/31 09:36:50;;;;;;;0.95;0.70;;;;;;;8.77;100.00;99501.19;5094803;28;20084;-37
2023/12/31 09:39:15;;;;;;;;;;;;;;;8.80;100.00;99507.97;5094679;28;20085;-37
2023/12/31 09:41:42;;;;;;;1.05;0.90;;;;;;;8.76;100.00;99521.13;5095373;28;19911;-37
2023/12/31 09:44:08;;;;;;;1.33;0.90;;;;;;;8.77;100.00;99511.97;5094997;28;20055;-37
2023/12/31 09:46:38;;;;;;;1.58;0.82;;;;;;;8.76;100.00;99516.56;5095277;28;20045;-36
2023/12/31 09:49:05;;;;;;;0.90;0.70;;;;;;;8.69;100.00;99510.53;5095011;28;20055;-36
2023/12/31 09:51:32;;;;;;;1.50;0.80;;;;;;;8.72;100.00;99509.22;5094332;28;20043;-36
2023/12/31 09:53:59;;;;;;;1.23;0.70;;;;;;;8.81;100.00;99523.06;5094264;28;20472;-37
2023/12/31 09:56:27;;;;;;;1.73;0.80;;;;;;;8.78;100.00;99508.19;5094737;28;20044;-36
2023/12/31 09:58:55;;;;;;;2.10;0.70;;;;;;;8.75;100.00;99514.13;5094189;28;20465;-37
2023/12/31 10:01:24;;;;;;;0.95;0.60;;;;;;;8.85;100.00;99543.06;5094074;28;20024;-36
2023/12/31 10:03:50;;;;;;;2.22;0.90;;;;;;;8.83;100.00;99535.22;5094676;28;20058;-37
2023/12/31 10:06:16;;;;;;;2.28;0.82;;;;;;;8.87;100.00;99546.31;5095178;28;20044;-37
2023/12/31 10:08:43;;;;;;;1.58;0.70;;;;;;;8.77;100.00;99528.16;5094026;28;20059;-36
2023/12/31 10:11:09;;;;;;;2.05;0.90;;;;;;;8.90;100.00;99526.97;5094573;28;20024;-37
2023/12/31 10:13:35;;;;;;;1.50;0.68;;;;;;;8.88;100.00;99535.31;5094212;28;20099;-36
2023/12/31 10:16:10;;;;;;;1.73;0.77;;;;;;;8.91;100.00;99523.19;5094507;28;20425;-37
2023/12/31 10:18:36;;;;;;;1.92;0.57;;;;;;;8.93;100.00;99521.03;5094006;28;20285;-36
2023/12/31 10:21:01;;;;;;;1.97;0.60;;;;;;;8.92;100.00;99524.81;5093881;28;20028;-37
2023/12/31 10:23:26;;;;;;;2.20;0.77;;;;;;;8.92;100.00;99517.53;5075893;28;20039;-37
2023/12/31 10:25:52;;;;;;;1.53;0.60;;;;;;;8.93;100.00;99521.88;5094151;28;20031;-37
2023/12/31 10:28:17;;;;;;;2.47;0.50;;;;;;;8.94;100.00;99518.13;5093892;28;20030;-37
2023/12/31 10:30:42;;;;;;;0.98;0.50;;;;;;;8.95;100.00;99525.13;5094798;28;20099;-37
2023/12/31 10:33:10;;;;;;;1.27;0.50;;;;;;;8.93;100.00;99519.19;5093876;28;20028;-37
2023/12/31 10:35:36;;;;;;;1.60;0.70;;;;;;;8.85;100.00;99500.75;5094100;28;20031;-37
2023/12/31 10:38:05;;;;;;;1.80;0.73;;;;;;;8.80;100.00;99514.19;5094438;28;20020;-37
2023/12/31 10:40:36;;;;;;;3.22;0.80;;;;;;;8.86;100.00;99532.03;5093531;28;20024;-37
2023/12/31 10:43:06;;;;;;;3.42;0.80;;;;;;;8.80;100.00;99522.25;5094143;28;20418;-37
2023/12/31 10:45:32;;;;;;;1.98;0.98;;;;;;;8.74;100.00;99529.47;5094084;28;20035;-37
2023/12/31 10:48:01;;;;;;;;;;;;;;;8.76;100.00;99531.91;5093886;28;20051;-37
2023/12/31 10:50:28;;;;;;;2.63;1.10;;;;;;;8.68;100.00;99541.22;5093875;28;19908;-37
2023/12/31 10:52:57;;;;;;;1.85;0.70;;;;;;;8.58;100.00;99521.44;5093376;28;20024;-37
2023/12/31 10:55:26;;;;;;;1.92;0.70;;;;;;;8.63;100.00;99538.47;5093987;28;20063;-37
2023/12/31 10:57:52;;;;;;;2.83;0.73;;;;;;;8.62;100.00;99530.66;5093961;28;20028;-37
2023/12/31 11:00:19;;;;;;;2.65;0.82;;;;;;;8.56;100.00;99521.69;5093361;28;20024;-37
2023/12/31 11:02:45;;;;;;;1.20;0.50;;;;;;;8.59;100.00;99521.19;5094418;28;20032;-36
2023/12/31 11:05:13;;;;;;;2.28;0.60;;;;;;;8.64;100.00;99523.16;5093548;28;20028;-37
2023/12/31 11:07:40;;;;;;;1.33;0.77;;;;;;;8.65;100.00;99530.16;5094104;28;20116;-37
2023/12/31 11:10:07;;;;;;;2.47;0.80;;;;;;;8.68;100.00;99533.16;5093756;28;20027;-37
2023/12/31 11:12:33;;;;;;;3.40;0.90;;;;;;;8.69;100.00;99531.28;5093483;28;20020;-37
2023/12/31 11:15:04;;;;;;;3.05;1.20;;;;;;;8.72;100.00;99520.81;5093526;28;20065;-37
2023/12/31 11:18:14;;;;;;;1.48;0.63;;;;;;;8.74;100.00;99528.66;5093714;28;20038;-37
2023/12/31 11:21:18;;;;;;;2.28;0.60;;;;;;;8.70;100.00;99535.63;5093435;28;20387;-37
2023/12/31 11:23:49;;;;;;;2.28;1.10;;;;;;;8.68;100.00;99541.22;5093965;28;20055;-36
2023/12/31 11:26:15;;;;;;;2.88;0.70;;;;;;;8.63;100.00;99527.69;5093883;28;20038;-37
2023/12/31 11:28:50;;;;;;;1.27;0.60;;;;;;;8.73;100.00;99538.59;5093271;28;20024;-37